createdAt,value
2022-08-11T00:02:32.565Z,18.70
2022-08-11T00:05:08.608Z,18.70
2022-08-11T00:07:44.993Z,18.60
2022-08-11T00:10:15.785Z,18.60
2022-08-11T00:12:51.926Z,18.60
2022-08-11T00:15:21.717Z,18.50
2022-08-11T00:17:52.085Z,18.40
2022-08-11T00:20:21.983Z,18.40
2022-08-11T00:22:52.549Z,18.30
2022-08-11T00:25:23.505Z,18.30
2022-08-11T00:27:54.069Z,18.30
2022-08-11T00:30:23.413Z,18.20
2022-08-11T00:32:59.085Z,18.20
2022-08-11T00:35:51.366Z,18.20
2022-08-11T00:38:26.951Z,18.20
2022-08-11T00:41:02.454Z,18.20
2022-08-11T00:43:57.321Z,18.10
2022-08-11T00:46:36.736Z,18.10
2022-08-11T00:49:17.718Z,18.00
2022-08-11T00:52:05.812Z,17.90
2022-08-11T00:55:04.304Z,17.90
2022-08-11T00:58:03.925Z,17.80
2022-08-11T01:00:59.266Z,17.70
2022-08-11T01:03:49.567Z,17.70
2022-08-11T01:06:40.023Z,17.60
2022-08-11T01:09:30.337Z,17.70
2022-08-11T01:12:33.188Z,17.70
2022-08-11T01:15:57.399Z,17.70
2022-08-11T01:19:17.337Z,17.60
2022-08-11T01:22:44.580Z,17.50
2022-08-11T01:25:56.713Z,17.50
2022-08-11T01:29:07.283Z,17.50
2022-08-11T01:32:13.590Z,17.40
2022-08-11T01:35:27.354Z,17.50
2022-08-11T01:38:27.555Z,17.40
2022-08-11T01:41:24.415Z,17.40
2022-08-11T01:44:32.469Z,17.30
2022-08-11T01:47:36.923Z,17.30
2022-08-11T01:50:19.164Z,17.30
2022-08-11T01:53:07.167Z,17.20
2022-08-11T01:55:46.563Z,17.10
2022-08-11T01:58:34.286Z,17.10
2022-08-11T02:01:33.259Z,17.10
2022-08-11T02:04:20.537Z,17.10
2022-08-11T02:07:01.000Z,17.00
2022-08-11T02:09:55.232Z,16.90
2022-08-11T02:12:43.039Z,16.90
2022-08-11T02:15:35.309Z,16.90
2022-08-11T02:18:16.699Z,16.80
2022-08-11T02:21:11.790Z,16.90
2022-08-11T02:24:05.955Z,16.90
2022-08-11T02:26:44.523Z,16.80
2022-08-11T02:29:24.353Z,16.80
2022-08-11T02:32:30.016Z,16.70
2022-08-11T02:38:00.984Z,16.70
2022-08-11T02:40:46.846Z,16.60
2022-08-11T02:43:31.126Z,16.60
2022-08-11T02:46:20.704Z,16.60
2022-08-11T02:49:15.836Z,16.50
2022-08-11T02:52:00.732Z,16.50
2022-08-11T02:54:38.478Z,16.50
2022-08-11T02:57:21.261Z,16.50
2022-08-11T02:59:58.685Z,16.50
2022-08-11T03:02:55.413Z,16.50
2022-08-11T03:05:35.872Z,16.40
2022-08-11T03:08:19.012Z,16.40
2022-08-11T03:11:19.306Z,16.30
2022-08-11T03:14:18.962Z,16.20
2022-08-11T03:16:58.247Z,16.20
2022-08-11T03:19:36.502Z,16.20
2022-08-11T03:22:14.612Z,16.20
2022-08-11T03:24:55.598Z,16.20
2022-08-11T03:27:37.057Z,16.20
2022-08-11T03:30:15.109Z,16.20
2022-08-11T03:33:17.295Z,16.30
2022-08-11T03:35:56.347Z,16.40
2022-08-11T03:38:30.416Z,16.70
2022-08-11T03:42:02.060Z,16.90
2022-08-11T03:44:39.514Z,17.00
2022-08-11T03:47:26.423Z,17.30
2022-08-11T03:50:05.096Z,17.40
2022-08-11T03:52:49.491Z,17.50
2022-08-11T03:55:34.099Z,17.40
2022-08-11T03:58:41.986Z,17.30
2022-08-11T04:01:56.843Z,17.10
2022-08-11T04:05:14.810Z,16.90
2022-08-11T04:08:34.254Z,16.70
2022-08-11T04:11:25.614Z,16.60
2022-08-11T04:15:02.386Z,16.50
2022-08-11T04:18:22.378Z,16.60
2022-08-11T04:21:13.096Z,17.00
2022-08-11T04:24:38.731Z,17.40
2022-08-11T04:27:43.488Z,17.70
2022-08-11T04:30:17.601Z,17.90
2022-08-11T04:33:35.228Z,18.00
2022-08-11T04:36:50.057Z,18.20
2022-08-11T04:39:35.552Z,18.40
2022-08-11T04:42:52.428Z,18.50
2022-08-11T04:45:46.732Z,18.70
2022-08-11T04:48:57.898Z,19.10
2022-08-11T04:52:06.062Z,19.30
2022-08-11T04:55:12.422Z,19.30
2022-08-11T04:58:10.858Z,19.10
2022-08-11T05:01:08.141Z,19.60
2022-08-11T05:04:05.347Z,20.20
2022-08-11T05:07:07.250Z,20.30
2022-08-11T05:09:49.255Z,20.50
2022-08-11T05:12:31.528Z,20.60
2022-08-11T05:15:19.072Z,20.80
2022-08-11T05:18:16.379Z,21.10
2022-08-11T05:21:08.157Z,21.50
2022-08-11T05:24:02.080Z,21.90
2022-08-11T05:26:57.087Z,22.20
2022-08-11T05:29:47.741Z,22.20
2022-08-11T05:32:36.358Z,22.30
2022-08-11T05:35:08.895Z,22.20
2022-08-11T05:38:02.136Z,22.20
2022-08-11T05:40:53.322Z,22.30
2022-08-11T05:44:21.755Z,22.60
2022-08-11T05:46:59.796Z,22.80
2022-08-11T05:49:49.732Z,23.00
2022-08-11T05:52:41.810Z,23.70
2022-08-11T05:55:30.073Z,24.30
2022-08-11T05:58:03.530Z,24.10
2022-08-11T06:00:34.127Z,24.10
2022-08-11T06:03:07.711Z,24.30
2022-08-11T06:05:43.413Z,24.70
2022-08-11T06:08:15.292Z,25.10
2022-08-11T06:10:46.972Z,25.00
2022-08-11T06:13:19.703Z,25.30
2022-08-11T06:15:52.201Z,25.90
2022-08-11T06:18:22.318Z,26.80
2022-08-11T06:20:54.414Z,27.10
2022-08-11T06:23:25.456Z,27.50
2022-08-11T06:25:56.373Z,27.50
2022-08-11T06:28:34.271Z,27.40
2022-08-11T06:31:12.978Z,26.90
2022-08-11T06:33:55.655Z,26.60
2022-08-11T06:36:34.608Z,26.20
2022-08-11T06:39:14.842Z,26.20
2022-08-11T06:41:50.206Z,26.40
2022-08-11T06:44:27.402Z,26.80
2022-08-11T06:47:01.371Z,27.10
2022-08-11T06:49:56.131Z,27.60
2022-08-11T06:52:35.674Z,27.90
2022-08-11T06:55:57.562Z,27.40
2022-08-11T06:58:47.733Z,27.10
2022-08-11T07:01:26.415Z,27.40
2022-08-11T07:04:05.843Z,27.60
2022-08-11T07:07:18.214Z,27.80
2022-08-11T07:10:45.653Z,28.00
2022-08-11T07:13:44.359Z,28.20
2022-08-11T07:16:24.331Z,28.50
2022-08-11T07:19:18.345Z,28.50
2022-08-11T07:22:06.733Z,28.50
2022-08-11T07:25:02.645Z,28.20
2022-08-11T07:28:00.304Z,28.00
2022-08-11T07:30:30.277Z,27.50
2022-08-11T07:33:04.112Z,27.10
2022-08-11T07:35:36.352Z,27.00
2022-08-11T07:38:09.419Z,27.00
2022-08-11T07:40:39.934Z,27.20
2022-08-11T07:43:09.973Z,27.40
2022-08-11T07:46:02.248Z,27.60
2022-08-11T07:48:52.037Z,27.30
2022-08-11T07:51:39.671Z,26.90
2022-08-11T07:54:17.145Z,26.80
2022-08-11T07:57:07.418Z,26.90
2022-08-11T08:00:03.838Z,27.50
2022-08-11T08:03:04.224Z,27.50
2022-08-11T08:05:53.536Z,27.40
2022-08-11T08:08:41.213Z,27.10
2022-08-11T08:11:29.017Z,26.60
2022-08-11T08:14:16.824Z,26.10
2022-08-11T08:17:04.838Z,26.20
2022-08-11T08:19:35.402Z,26.10
2022-08-11T08:22:38.271Z,26.30
2022-08-11T08:24:57.946Z,26.70
2022-08-11T08:27:28.656Z,27.10
2022-08-11T08:30:19.549Z,26.90
2022-08-11T08:32:49.641Z,26.60
2022-08-11T08:35:20.028Z,26.50
2022-08-11T08:37:52.974Z,26.40
2022-08-11T08:40:22.411Z,26.30
2022-08-11T08:42:56.706Z,26.50
2022-08-11T08:45:27.677Z,26.80
2022-08-11T08:48:02.035Z,26.50
2022-08-11T08:50:55.084Z,26.50
2022-08-11T08:53:32.295Z,26.40
2022-08-11T08:56:03.673Z,26.30
2022-08-11T08:58:35.252Z,26.50
2022-08-11T09:01:05.431Z,26.70
2022-08-11T09:04:05.385Z,26.50
2022-08-11T09:06:31.830Z,26.70
2022-08-11T09:09:03.179Z,26.90
2022-08-11T09:11:50.268Z,26.80
2022-08-11T09:14:20.511Z,26.70
2022-08-11T09:16:51.313Z,26.60
2022-08-11T09:19:23.001Z,26.30
2022-08-11T09:22:13.932Z,26.50
2022-08-11T09:25:02.334Z,26.60
2022-08-11T09:27:31.706Z,26.30
2022-08-11T09:30:01.352Z,26.50
2022-08-11T09:32:31.862Z,26.90
2022-08-11T09:35:03.234Z,26.80
2022-08-11T09:37:55.934Z,26.80
2022-08-11T09:40:30.862Z,26.50
2022-08-11T09:43:18.738Z,26.10
2022-08-11T09:45:52.377Z,26.10
2022-08-11T09:48:24.488Z,26.10
2022-08-11T09:50:56.411Z,26.40
2022-08-11T09:53:35.702Z,26.50
2022-08-11T09:56:31.678Z,26.30
2022-08-11T09:59:04.113Z,25.90
2022-08-11T10:01:38.133Z,26.10
2022-08-11T10:04:15.562Z,26.30
2022-08-11T10:07:04.577Z,26.70
2022-08-11T10:09:42.389Z,26.50
2022-08-11T10:12:16.303Z,26.30
2022-08-11T10:15:05.833Z,26.10
2022-08-11T10:18:01.036Z,25.70
2022-08-11T10:20:32.707Z,25.80
2022-08-11T10:23:22.338Z,26.20
2022-08-11T10:26:10.098Z,25.90
2022-08-11T10:29:02.521Z,25.60
2022-08-11T10:31:57.579Z,25.30
2022-08-11T10:34:29.812Z,25.20
2022-08-11T10:37:03.498Z,25.00
2022-08-11T10:39:33.434Z,25.10
2022-08-11T10:42:35.344Z,25.40
2022-08-11T10:45:26.693Z,25.60
2022-08-11T10:47:57.589Z,26.00
2022-08-11T10:50:50.337Z,26.40
2022-08-11T10:53:38.905Z,26.50
2022-08-11T10:56:26.830Z,26.70
2022-08-11T10:59:02.098Z,26.50
2022-08-11T11:01:39.304Z,26.30
2022-08-11T11:04:12.127Z,26.40
2022-08-11T11:06:52.217Z,26.50
2022-08-11T11:09:26.196Z,26.60
2022-08-11T11:12:15.949Z,26.70
2022-08-11T11:15:06.748Z,26.80
2022-08-11T11:18:04.940Z,27.20
2022-08-11T11:20:45.068Z,26.70
2022-08-11T11:23:20.405Z,26.40
2022-08-11T11:26:14.787Z,25.90
2022-08-11T11:29:25.332Z,25.70
2022-08-11T11:32:11.173Z,26.10
2022-08-11T11:35:12.971Z,26.40
2022-08-11T11:37:56.101Z,25.90
2022-08-11T11:40:34.423Z,25.40
2022-08-11T11:43:04.021Z,25.10
2022-08-11T11:45:33.872Z,25.00
2022-08-11T11:48:04.093Z,24.90
2022-08-11T11:50:37.338Z,24.90
2022-08-11T11:53:11.658Z,24.80
2022-08-11T11:55:45.717Z,25.00
2022-08-11T11:58:33.409Z,25.20
2022-08-11T12:01:19.303Z,25.50
2022-08-11T12:03:52.059Z,25.80
2022-08-11T12:06:27.896Z,26.00
2022-08-11T12:09:00.451Z,26.10
2022-08-11T12:11:49.383Z,26.30
2022-08-11T12:14:21.035Z,26.60
2022-08-11T12:16:51.566Z,26.90
2022-08-11T12:19:25.203Z,26.90
2022-08-11T12:22:14.972Z,26.50
2022-08-11T12:25:02.209Z,26.30
2022-08-11T12:27:32.907Z,25.90
2022-08-11T12:30:08.679Z,25.70
2022-08-11T12:32:39.223Z,25.70
2022-08-11T12:35:09.817Z,25.60
2022-08-11T12:37:43.886Z,25.40
2022-08-11T12:41:13.751Z,25.50
2022-08-11T12:43:56.620Z,25.60
2022-08-11T12:46:32.182Z,25.90
2022-08-11T12:49:24.413Z,26.10
2022-08-11T12:52:13.506Z,26.10
2022-08-11T12:54:57.979Z,26.00
2022-08-11T12:57:54.808Z,25.90
2022-08-11T13:00:42.578Z,25.90
2022-08-11T13:03:32.740Z,25.90
2022-08-11T13:06:04.077Z,25.80
2022-08-11T13:08:37.086Z,25.80
2022-08-11T13:11:55.682Z,25.60
2022-08-11T13:14:17.105Z,25.60
2022-08-11T13:17:04.641Z,25.50
2022-08-11T13:19:35.142Z,25.60
2022-08-11T13:22:05.453Z,25.60
2022-08-11T13:24:35.647Z,25.80
2022-08-11T13:27:06.953Z,26.00
2022-08-11T13:29:37.410Z,26.20
2022-08-11T13:32:07.131Z,26.10
2022-08-11T13:34:41.922Z,26.00
2022-08-11T13:37:19.819Z,25.90
2022-08-11T13:40:11.006Z,25.90
2022-08-11T13:42:45.677Z,26.10
2022-08-11T13:45:16.172Z,26.30
2022-08-11T13:47:47.255Z,26.40
2022-08-11T13:50:17.669Z,26.50
2022-08-11T13:52:53.136Z,26.60
2022-08-11T13:55:45.087Z,26.70
2022-08-11T13:58:19.332Z,26.80
2022-08-11T14:02:04.023Z,26.90
2022-08-11T14:04:31.118Z,26.90
2022-08-11T14:07:01.041Z,26.90
2022-08-11T14:09:35.292Z,26.70
2022-08-11T14:12:28.963Z,26.80
2022-08-11T14:15:09.301Z,26.90
2022-08-11T14:17:48.891Z,27.00
2022-08-11T14:20:39.565Z,26.90
2022-08-11T14:23:14.339Z,26.90
2022-08-11T14:26:04.174Z,26.60
2022-08-11T14:28:40.250Z,26.70
2022-08-11T14:31:16.168Z,26.50
2022-08-11T14:33:59.368Z,26.60
2022-08-11T14:36:34.235Z,26.40
2022-08-11T14:39:07.279Z,26.20
2022-08-11T14:42:10.802Z,26.00
2022-08-11T14:45:03.438Z,26.00
2022-08-11T14:47:36.441Z,26.00
2022-08-11T14:50:11.800Z,26.10
2022-08-11T14:52:49.044Z,26.20
2022-08-11T14:55:36.639Z,26.40
2022-08-11T14:58:06.791Z,26.60
2022-08-11T15:00:37.152Z,26.80
2022-08-11T15:03:11.406Z,26.80
2022-08-11T15:05:56.194Z,26.90
2022-08-11T15:08:47.901Z,26.90
2022-08-11T15:11:36.423Z,26.90
2022-08-11T15:14:08.326Z,26.80
2022-08-11T15:16:56.520Z,26.90
2022-08-11T15:19:40.173Z,26.90
2022-08-11T15:22:29.311Z,27.00
2022-08-11T15:25:00.540Z,27.10
2022-08-11T15:27:51.712Z,27.20
2022-08-11T15:30:40.422Z,27.20
2022-08-11T15:33:29.918Z,27.20
2022-08-11T15:36:21.738Z,27.20
2022-08-11T15:38:55.780Z,27.00
2022-08-11T15:41:58.267Z,26.90
2022-08-11T15:45:03.481Z,26.20
2022-08-11T15:47:41.488Z,26.20
2022-08-11T15:50:16.384Z,26.30
2022-08-11T15:52:57.759Z,26.30
2022-08-11T15:55:27.721Z,26.40
2022-08-11T15:58:15.861Z,26.40
2022-08-11T16:01:09.080Z,26.40
2022-08-11T16:04:07.602Z,26.40
2022-08-11T16:06:46.316Z,26.30
2022-08-11T16:09:24.504Z,26.30
2022-08-11T16:11:58.419Z,26.40
2022-08-11T16:14:47.441Z,26.60
2022-08-11T16:17:19.333Z,26.50
2022-08-11T16:19:53.133Z,26.50
2022-08-11T16:22:33.212Z,26.50
2022-08-11T16:27:01.507Z,26.40
2022-08-11T16:27:59.766Z,26.40
2022-08-11T16:30:32.198Z,26.40
2022-08-11T16:33:48.953Z,26.40
2022-08-11T16:36:13.616Z,26.40
2022-08-11T16:38:44.720Z,26.30
2022-08-11T16:41:38.794Z,26.40
2022-08-11T16:44:37.016Z,26.50
2022-08-11T16:47:09.509Z,26.40
2022-08-11T16:49:43.430Z,26.30
2022-08-11T16:52:13.535Z,26.40
2022-08-11T16:54:44.522Z,26.30
2022-08-11T16:57:37.030Z,26.30
2022-08-11T17:00:09.067Z,26.20
2022-08-11T17:03:01.759Z,26.20
2022-08-11T17:05:54.270Z,26.00
2022-08-11T17:08:57.112Z,25.90
2022-08-11T17:11:46.929Z,25.90
2022-08-11T17:14:35.292Z,25.90
2022-08-11T17:17:07.514Z,25.80
2022-08-11T17:20:40.370Z,25.80
2022-08-11T17:22:47.163Z,25.80
2022-08-11T17:25:18.580Z,25.70
2022-08-11T17:27:50.281Z,25.60
2022-08-11T17:30:21.323Z,25.50
2022-08-11T17:33:10.463Z,25.50
2022-08-11T17:35:44.782Z,25.40
2022-08-11T17:38:16.610Z,25.40
2022-08-11T17:41:02.400Z,25.40
2022-08-11T17:43:50.016Z,25.30
2022-08-11T17:46:38.917Z,25.30
2022-08-11T17:49:10.112Z,25.20
2022-08-11T17:52:00.141Z,25.00
2022-08-11T17:54:47.294Z,25.00
2022-08-11T17:57:36.173Z,25.00
2022-08-11T18:00:08.231Z,24.90
2022-08-11T18:03:06.697Z,24.80
2022-08-11T18:05:38.179Z,24.80
2022-08-11T18:08:28.356Z,24.70
2022-08-11T18:11:17.561Z,24.60
2022-08-11T18:14:26.580Z,24.60
2022-08-11T18:17:13.617Z,24.60
2022-08-11T18:20:02.223Z,24.50
2022-08-11T18:22:54.977Z,24.20
2022-08-11T18:25:46.270Z,24.20
2022-08-11T18:28:36.204Z,24.10
2022-08-11T18:31:25.042Z,24.10
2022-08-11T18:34:13.223Z,24.10
2022-08-11T18:37:07.863Z,24.00
2022-08-11T18:40:01.498Z,24.00
2022-08-11T18:42:50.558Z,23.90
2022-08-11T18:45:45.277Z,23.90
2022-08-11T18:48:39.568Z,23.80
2022-08-11T18:51:36.078Z,23.80
2022-08-11T18:54:28.485Z,23.80
2022-08-11T18:57:19.889Z,23.80
2022-08-11T19:00:08.778Z,23.70
2022-08-11T19:02:58.110Z,23.70
2022-08-11T19:06:32.422Z,23.60
2022-08-11T19:08:59.011Z,23.60
2022-08-11T19:11:49.661Z,23.60
2022-08-11T19:14:37.916Z,23.60
2022-08-11T19:17:44.854Z,23.50
2022-08-11T19:20:36.072Z,23.50
2022-08-11T19:23:25.599Z,23.50
2022-08-11T19:26:12.772Z,23.50
2022-08-11T19:29:03.237Z,23.40
2022-08-11T19:31:51.043Z,23.40
2022-08-11T19:34:39.576Z,23.40
2022-08-11T19:37:27.966Z,23.40
2022-08-11T19:40:18.284Z,23.40
2022-08-11T19:43:14.842Z,23.40
2022-08-11T19:46:18.782Z,23.30
2022-08-11T19:49:08.613Z,23.30
2022-08-11T19:51:56.420Z,23.30
2022-08-11T19:54:45.484Z,23.20
2022-08-11T19:57:39.253Z,23.20
2022-08-11T20:00:31.037Z,23.10
2022-08-11T20:03:22.329Z,23.20
2022-08-11T20:06:10.032Z,23.20
2022-08-11T20:09:00.723Z,23.20
2022-08-11T20:11:49.178Z,23.20
2022-08-11T20:14:37.318Z,23.10
2022-08-11T20:17:25.466Z,23.10
2022-08-11T20:20:14.470Z,23.10
2022-08-11T20:23:02.635Z,23.10
2022-08-11T20:25:53.153Z,23.10
2022-08-11T20:28:43.775Z,23.10
2022-08-11T20:31:31.717Z,23.00
2022-08-11T20:34:20.576Z,22.90
2022-08-11T20:37:09.759Z,22.90
2022-08-11T20:39:57.882Z,22.90
2022-08-11T20:42:47.382Z,22.90
2022-08-11T20:45:35.346Z,22.90
2022-08-11T20:48:23.457Z,22.80
2022-08-11T20:51:11.711Z,22.80
2022-08-11T20:54:06.485Z,22.80
2022-08-11T20:56:55.269Z,22.80
2022-08-11T20:59:56.745Z,22.70
2022-08-11T21:02:45.042Z,22.70
2022-08-11T21:06:08.677Z,22.80
2022-08-11T21:08:41.833Z,22.70
2022-08-11T21:11:33.324Z,22.60
2022-08-11T21:14:22.828Z,22.60
2022-08-11T21:17:27.915Z,22.50
2022-08-11T21:20:21.136Z,22.40
2022-08-11T21:23:19.834Z,22.40
2022-08-11T21:26:14.971Z,22.30
2022-08-11T21:29:04.333Z,22.40
2022-08-11T21:31:53.028Z,22.40
2022-08-11T21:34:41.090Z,22.40
2022-08-11T21:37:28.963Z,22.30
2022-08-11T21:40:19.234Z,22.20
2022-08-11T21:43:08.790Z,22.20
2022-08-11T21:45:58.481Z,22.20
2022-08-11T21:48:46.610Z,22.20
2022-08-11T21:51:33.287Z,22.20
2022-08-11T21:54:20.683Z,22.20
2022-08-11T21:57:07.793Z,22.30
2022-08-11T22:00:03.097Z,22.20
2022-08-11T22:03:00.415Z,22.20
2022-08-11T22:05:48.206Z,22.20
2022-08-11T22:08:35.647Z,22.20
2022-08-11T22:11:31.896Z,22.20
2022-08-11T22:14:19.756Z,22.20
2022-08-11T22:17:06.361Z,22.20
2022-08-11T22:19:56.748Z,22.30
2022-08-11T22:22:51.213Z,22.30
2022-08-11T22:25:51.464Z,22.30
2022-08-11T22:28:41.565Z,22.30
2022-08-11T22:31:30.072Z,22.30
2022-08-11T22:34:16.774Z,22.20
2022-08-11T22:37:07.078Z,22.20
2022-08-11T22:40:01.946Z,22.20
2022-08-11T22:42:50.513Z,22.10
2022-08-11T22:45:36.971Z,22.00
2022-08-11T22:48:24.524Z,21.90
2022-08-11T22:51:12.591Z,21.90
2022-08-11T22:54:00.566Z,21.90
2022-08-11T22:56:48.865Z,21.90
2022-08-11T22:59:36.871Z,21.80
2022-08-11T23:02:24.913Z,21.90
2022-08-11T23:05:11.580Z,21.90
2022-08-11T23:07:59.414Z,21.90
2022-08-11T23:10:48.730Z,21.90
2022-08-11T23:13:35.523Z,21.80
2022-08-11T23:16:22.981Z,21.80
2022-08-11T23:19:09.733Z,21.80
2022-08-11T23:21:56.842Z,21.70
2022-08-11T23:24:44.269Z,21.70
2022-08-11T23:27:33.927Z,21.70
2022-08-11T23:30:21.478Z,21.70
2022-08-11T23:33:11.552Z,21.60
2022-08-11T23:36:04.411Z,21.50
2022-08-11T23:38:52.352Z,21.40
2022-08-11T23:41:40.282Z,21.40
2022-08-11T23:44:28.554Z,21.30
2022-08-11T23:47:20.357Z,21.30
2022-08-11T23:50:07.115Z,21.30
2022-08-11T23:52:54.435Z,21.40
2022-08-11T23:55:41.075Z,21.40
2022-08-11T23:58:28.545Z,21.40
